sensor_id;sensor_type;location;lat;lon;timestamp;P1;durP1;ratioP1;P2;durP2;ratioP2
20772;SDS011;10546;50.674;4.616;2023-04-06T00:01:36;24.13;;;11.80;;
20772;SDS011;10546;50.674;4.616;2023-04-06T00:04:02;22.37;;;10.93;;
20772;SDS011;10546;50.674;4.616;2023-04-06T00:06:28;23.63;;;11.27;;
20772;SDS011;10546;50.674;4.616;2023-04-06T00:08:55;27.50;;;10.93;;
20772;SDS011;10546;50.674;4.616;2023-04-06T00:11:21;24.20;;;11.30;;
20772;SDS011;10546;50.674;4.616;2023-04-06T00:13:47;23.70;;;12.00;;
20772;SDS011;10546;50.674;4.616;2023-04-06T00:16:13;24.00;;;11.80;;
20772;SDS011;10546;50.674;4.616;2023-04-06T00:18:39;22.90;;;10.63;;
20772;SDS011;10546;50.674;4.616;2023-04-06T00:21:05;20.47;;;10.30;;
20772;SDS011;10546;50.674;4.616;2023-04-06T00:23:30;24.40;;;11.57;;
20772;SDS011;10546;50.674;4.616;2023-04-06T00:25:56;27.27;;;11.57;;
20772;SDS011;10546;50.674;4.616;2023-04-06T00:28:22;23.93;;;10.70;;
20772;SDS011;10546;50.674;4.616;2023-04-06T00:30:51;25.43;;;11.50;;
20772;SDS011;10546;50.674;4.616;2023-04-06T00:33:19;19.43;;;10.00;;
20772;SDS011;10546;50.674;4.616;2023-04-06T00:35:45;23.03;;;11.63;;
20772;SDS011;10546;50.674;4.616;2023-04-06T00:38:11;21.00;;;11.27;;
20772;SDS011;10546;50.674;4.616;2023-04-06T00:40:37;24.10;;;11.73;;
20772;SDS011;10546;50.674;4.616;2023-04-06T00:43:04;29.23;;;11.83;;
20772;SDS011;10546;50.674;4.616;2023-04-06T00:45:31;25.27;;;12.37;;
20772;SDS011;10546;50.674;4.616;2023-04-06T00:47:57;23.93;;;11.50;;
20772;SDS011;10546;50.674;4.616;2023-04-06T00:50:23;27.23;;;11.17;;
20772;SDS011;10546;50.674;4.616;2023-04-06T00:52:48;23.47;;;10.67;;
20772;SDS011;10546;50.674;4.616;2023-04-06T00:55:14;23.10;;;11.57;;
20772;SDS011;10546;50.674;4.616;2023-04-06T00:57:40;21.87;;;10.60;;
20772;SDS011;10546;50.674;4.616;2023-04-06T01:00:06;21.13;;;11.17;;
20772;SDS011;10546;50.674;4.616;2023-04-06T01:02:32;22.70;;;11.37;;
20772;SDS011;10546;50.674;4.616;2023-04-06T01:04:57;22.90;;;10.87;;
20772;SDS011;10546;50.674;4.616;2023-04-06T01:07:23;21.20;;;10.70;;
20772;SDS011;10546;50.674;4.616;2023-04-06T01:09:49;26.53;;;12.33;;
20772;SDS011;10546;50.674;4.616;2023-04-06T01:12:15;25.80;;;12.27;;
20772;SDS011;10546;50.674;4.616;2023-04-06T01:14:41;24.67;;;12.00;;
20772;SDS011;10546;50.674;4.616;2023-04-06T01:17:06;21.50;;;11.77;;
20772;SDS011;10546;50.674;4.616;2023-04-06T01:19:32;24.47;;;11.87;;
20772;SDS011;10546;50.674;4.616;2023-04-06T01:21:58;27.03;;;11.80;;
20772;SDS011;10546;50.674;4.616;2023-04-06T01:24:23;25.30;;;11.53;;
20772;SDS011;10546;50.674;4.616;2023-04-06T01:26:49;18.93;;;10.47;;
20772;SDS011;10546;50.674;4.616;2023-04-06T01:29:15;26.47;;;12.37;;
20772;SDS011;10546;50.674;4.616;2023-04-06T01:31:40;23.90;;;11.60;;
20772;SDS011;10546;50.674;4.616;2023-04-06T01:34:06;25.57;;;11.43;;
20772;SDS011;10546;50.674;4.616;2023-04-06T01:36:32;19.70;;;11.00;;
20772;SDS011;10546;50.674;4.616;2023-04-06T01:38:57;23.80;;;11.10;;
20772;SDS011;10546;50.674;4.616;2023-04-06T01:41:23;22.80;;;10.67;;
20772;SDS011;10546;50.674;4.616;2023-04-06T01:43:49;23.50;;;11.57;;
20772;SDS011;10546;50.674;4.616;2023-04-06T04:44:14;21.27;;;10.97;;
20772;SDS011;10546;50.674;4.616;2023-04-06T04:46:40;26.20;;;12.53;;
20772;SDS011;10546;50.674;4.616;2023-04-06T04:49:06;27.27;;;11.40;;
20772;SDS011;10546;50.674;4.616;2023-04-06T04:51:32;21.43;;;10.60;;
20772;SDS011;10546;50.674;4.616;2023-04-06T04:53:58;21.50;;;11.03;;
20772;SDS011;10546;50.674;4.616;2023-04-06T04:56:25;22.07;;;10.80;;
20772;SDS011;10546;50.674;4.616;2023-04-06T04:58:52;22.60;;;10.60;;
20772;SDS011;10546;50.674;4.616;2023-04-06T05:01:18;22.43;;;11.27;;
20772;SDS011;10546;50.674;4.616;2023-04-06T05:03:43;20.63;;;9.60;;
20772;SDS011;10546;50.674;4.616;2023-04-06T05:06:09;22.97;;;10.67;;
20772;SDS011;10546;50.674;4.616;2023-04-06T05:08:35;25.10;;;10.97;;
20772;SDS011;10546;50.674;4.616;2023-04-06T05:11:01;22.90;;;11.20;;
20772;SDS011;10546;50.674;4.616;2023-04-06T05:13:29;23.40;;;10.63;;
20772;SDS011;10546;50.674;4.616;2023-04-06T05:15:55;23.03;;;11.20;;
20772;SDS011;10546;50.674;4.616;2023-04-06T05:18:21;27.03;;;11.27;;
20772;SDS011;10546;50.674;4.616;2023-04-06T05:20:47;23.77;;;11.03;;
20772;SDS011;10546;50.674;4.616;2023-04-06T05:23:13;29.63;;;11.93;;
20772;SDS011;10546;50.674;4.616;2023-04-06T05:25:38;24.03;;;10.63;;
20772;SDS011;10546;50.674;4.616;2023-04-06T05:28:04;24.53;;;11.43;;
20772;SDS011;10546;50.674;4.616;2023-04-06T05:30:30;24.73;;;11.40;;
20772;SDS011;10546;50.674;4.616;2023-04-06T05:32:56;24.17;;;10.97;;
20772;SDS011;10546;50.674;4.616;2023-04-06T05:35:21;23.67;;;10.80;;
20772;SDS011;10546;50.674;4.616;2023-04-06T05:37:47;26.53;;;10.93;;
20772;SDS011;10546;50.674;4.616;2023-04-06T05:40:13;24.00;;;11.40;;
20772;SDS011;10546;50.674;4.616;2023-04-06T05:42:39;23.40;;;10.93;;
20772;SDS011;10546;50.674;4.616;2023-04-06T05:45:08;24.33;;;11.20;;
20772;SDS011;10546;50.674;4.616;2023-04-06T05:47:44;23.40;;;11.40;;
20772;SDS011;10546;50.674;4.616;2023-04-06T05:50:11;22.07;;;10.93;;
20772;SDS011;10546;50.674;4.616;2023-04-06T05:52:37;20.67;;;11.03;;
20772;SDS011;10546;50.674;4.616;2023-04-06T05:55:03;23.53;;;11.30;;
20772;SDS011;10546;50.674;4.616;2023-04-06T05:57:29;23.80;;;11.30;;
20772;SDS011;10546;50.674;4.616;2023-04-06T05:59:55;25.70;;;12.60;;
20772;SDS011;10546;50.674;4.616;2023-04-06T06:02:21;26.10;;;11.53;;
20772;SDS011;10546;50.674;4.616;2023-04-06T06:04:47;23.87;;;11.30;;
20772;SDS011;10546;50.674;4.616;2023-04-06T06:07:16;23.17;;;10.93;;
20772;SDS011;10546;50.674;4.616;2023-04-06T06:09:42;26.10;;;11.67;;
20772;SDS011;10546;50.674;4.616;2023-04-06T06:12:07;23.47;;;11.83;;
20772;SDS011;10546;50.674;4.616;2023-04-06T06:14:33;20.47;;;10.33;;
20772;SDS011;10546;50.674;4.616;2023-04-06T06:16:59;24.90;;;11.27;;
20772;SDS011;10546;50.674;4.616;2023-04-06T06:19:25;22.87;;;10.70;;
20772;SDS011;10546;50.674;4.616;2023-04-06T06:21:50;23.53;;;11.07;;
20772;SDS011;10546;50.674;4.616;2023-04-06T06:24:16;27.40;;;11.70;;
20772;SDS011;10546;50.674;4.616;2023-04-06T06:26:42;23.60;;;11.40;;
20772;SDS011;10546;50.674;4.616;2023-04-06T06:29:08;25.47;;;12.67;;
20772;SDS011;10546;50.674;4.616;2023-04-06T06:31:34;27.63;;;12.13;;
20772;SDS011;10546;50.674;4.616;2023-04-06T06:34:00;30.70;;;12.00;;
20772;SDS011;10546;50.674;4.616;2023-04-06T06:36:27;24.30;;;12.07;;
20772;SDS011;10546;50.674;4.616;2023-04-06T06:38:52;30.50;;;12.70;;
20772;SDS011;10546;50.674;4.616;2023-04-06T06:41:18;26.80;;;11.90;;
20772;SDS011;10546;50.674;4.616;2023-04-06T06:43:44;26.30;;;11.60;;
20772;SDS011;10546;50.674;4.616;2023-04-06T06:46:10;23.57;;;12.10;;
20772;SDS011;10546;50.674;4.616;2023-04-06T06:48:35;22.20;;;10.97;;
20772;SDS011;10546;50.674;4.616;2023-04-06T06:51:01;23.30;;;11.53;;
20772;SDS011;10546;50.674;4.616;2023-04-06T06:53:27;26.67;;;12.30;;
20772;SDS011;10546;50.674;4.616;2023-04-06T06:55:53;27.63;;;11.97;;
20772;SDS011;10546;50.674;4.616;2023-04-06T06:58:19;27.80;;;11.80;;
20772;SDS011;10546;50.674;4.616;2023-04-06T07:00:47;25.33;;;11.47;;
20772;SDS011;10546;50.674;4.616;2023-04-06T07:03:13;24.77;;;11.70;;
20772;SDS011;10546;50.674;4.616;2023-04-06T07:05:39;30.53;;;12.23;;
20772;SDS011;10546;50.674;4.616;2023-04-06T07:08:10;31.23;;;13.30;;
20772;SDS011;10546;50.674;4.616;2023-04-06T07:10:36;24.90;;;12.53;;
20772;SDS011;10546;50.674;4.616;2023-04-06T07:13:01;32.63;;;15.97;;
20772;SDS011;10546;50.674;4.616;2023-04-06T07:15:27;23.70;;;12.60;;
20772;SDS011;10546;50.674;4.616;2023-04-06T07:17:53;26.90;;;11.80;;
20772;SDS011;10546;50.674;4.616;2023-04-06T07:20:19;29.80;;;13.60;;
20772;SDS011;10546;50.674;4.616;2023-04-06T07:22:45;24.90;;;12.93;;
20772;SDS011;10546;50.674;4.616;2023-04-06T07:25:10;27.00;;;13.43;;
20772;SDS011;10546;50.674;4.616;2023-04-06T07:27:36;25.03;;;12.87;;
20772;SDS011;10546;50.674;4.616;2023-04-06T07:30:02;28.97;;;13.97;;
20772;SDS011;10546;50.674;4.616;2023-04-06T07:32:28;28.50;;;13.47;;
20772;SDS011;10546;50.674;4.616;2023-04-06T07:34:53;33.37;;;13.80;;
20772;SDS011;10546;50.674;4.616;2023-04-06T07:37:19;27.00;;;13.70;;
20772;SDS011;10546;50.674;4.616;2023-04-06T07:39:45;25.07;;;13.00;;
20772;SDS011;10546;50.674;4.616;2023-04-06T07:42:11;27.93;;;13.63;;
20772;SDS011;10546;50.674;4.616;2023-04-06T07:44:37;32.53;;;13.27;;
20772;SDS011;10546;50.674;4.616;2023-04-06T07:47:02;21.33;;;12.57;;
20772;SDS011;10546;50.674;4.616;2023-04-06T07:49:28;35.57;;;13.57;;
20772;SDS011;10546;50.674;4.616;2023-04-06T07:51:53;25.70;;;13.53;;
20772;SDS011;10546;50.674;4.616;2023-04-06T07:54:19;28.47;;;12.93;;
20772;SDS011;10546;50.674;4.616;2023-04-06T07:56:45;25.80;;;13.00;;
20772;SDS011;10546;50.674;4.616;2023-04-06T07:59:11;28.83;;;13.73;;
20772;SDS011;10546;50.674;4.616;2023-04-06T08:01:38;31.13;;;12.50;;
20772;SDS011;10546;50.674;4.616;2023-04-06T08:04:04;27.03;;;13.47;;
20772;SDS011;10546;50.674;4.616;2023-04-06T08:06:30;26.40;;;13.30;;
20772;SDS011;10546;50.674;4.616;2023-04-06T08:08:55;26.80;;;13.03;;
20772;SDS011;10546;50.674;4.616;2023-04-06T08:11:21;28.60;;;13.73;;
20772;SDS011;10546;50.674;4.616;2023-04-06T08:13:46;25.43;;;12.53;;
20772;SDS011;10546;50.674;4.616;2023-04-06T08:16:12;24.53;;;12.77;;
20772;SDS011;10546;50.674;4.616;2023-04-06T08:18:38;26.57;;;14.03;;
20772;SDS011;10546;50.674;4.616;2023-04-06T08:21:04;24.40;;;12.60;;
20772;SDS011;10546;50.674;4.616;2023-04-06T08:23:29;29.30;;;12.00;;
20772;SDS011;10546;50.674;4.616;2023-04-06T08:25:55;24.07;;;11.90;;
20772;SDS011;10546;50.674;4.616;2023-04-06T08:28:21;24.30;;;12.10;;
20772;SDS011;10546;50.674;4.616;2023-04-06T08:30:46;26.93;;;12.00;;
20772;SDS011;10546;50.674;4.616;2023-04-06T08:33:12;25.60;;;12.57;;
20772;SDS011;10546;50.674;4.616;2023-04-06T08:35:38;25.30;;;11.40;;
20772;SDS011;10546;50.674;4.616;2023-04-06T08:38:04;21.50;;;11.17;;
20772;SDS011;10546;50.674;4.616;2023-04-06T08:40:35;23.43;;;11.87;;
20772;SDS011;10546;50.674;4.616;2023-04-06T08:43:05;23.43;;;11.70;;
20772;SDS011;10546;50.674;4.616;2023-04-06T08:45:34;22.93;;;11.80;;
20772;SDS011;10546;50.674;4.616;2023-04-06T08:48:00;21.20;;;11.53;;
20772;SDS011;10546;50.674;4.616;2023-04-06T08:50:29;30.57;;;14.83;;
20772;SDS011;10546;50.674;4.616;2023-04-06T08:52:55;25.50;;;11.77;;
20772;SDS011;10546;50.674;4.616;2023-04-06T08:55:22;25.33;;;11.07;;
20772;SDS011;10546;50.674;4.616;2023-04-06T08:57:47;23.50;;;11.67;;
20772;SDS011;10546;50.674;4.616;2023-04-06T09:00:14;24.63;;;11.40;;
20772;SDS011;10546;50.674;4.616;2023-04-06T09:02:41;20.40;;;10.93;;
20772;SDS011;10546;50.674;4.616;2023-04-06T09:05:08;24.87;;;12.20;;
20772;SDS011;10546;50.674;4.616;2023-04-06T09:07:37;23.43;;;12.00;;
20772;SDS011;10546;50.674;4.616;2023-04-06T09:10:04;21.00;;;11.40;;
20772;SDS011;10546;50.674;4.616;2023-04-06T09:12:30;22.43;;;11.60;;
20772;SDS011;10546;50.674;4.616;2023-04-06T09:14:57;19.97;;;10.93;;
20772;SDS011;10546;50.674;4.616;2023-04-06T09:17:25;23.90;;;12.20;;
20772;SDS011;10546;50.674;4.616;2023-04-06T09:19:52;25.30;;;12.53;;
20772;SDS011;10546;50.674;4.616;2023-04-06T09:22:18;19.90;;;10.93;;
20772;SDS011;10546;50.674;4.616;2023-04-06T09:24:46;21.90;;;11.30;;
20772;SDS011;10546;50.674;4.616;2023-04-06T09:27:13;24.47;;;12.23;;
20772;SDS011;10546;50.674;4.616;2023-04-06T09:29:43;24.17;;;13.23;;
20772;SDS011;10546;50.674;4.616;2023-04-06T09:32:10;24.97;;;11.67;;
20772;SDS011;10546;50.674;4.616;2023-04-06T09:34:37;26.40;;;12.50;;
20772;SDS011;10546;50.674;4.616;2023-04-06T09:37:13;22.37;;;11.03;;
20772;SDS011;10546;50.674;4.616;2023-04-06T09:39:40;17.93;;;8.90;;
20772;SDS011;10546;50.674;4.616;2023-04-06T09:42:06;17.70;;;8.60;;
20772;SDS011;10546;50.674;4.616;2023-04-06T09:44:31;23.27;;;12.07;;
20772;SDS011;10546;50.674;4.616;2023-04-06T09:46:57;25.63;;;11.93;;
20772;SDS011;10546;50.674;4.616;2023-04-06T09:49:23;24.27;;;11.30;;
20772;SDS011;10546;50.674;4.616;2023-04-06T09:51:59;19.57;;;9.77;;
20772;SDS011;10546;50.674;4.616;2023-04-06T09:54:28;22.93;;;11.57;;
20772;SDS011;10546;50.674;4.616;2023-04-06T09:57:11;20.07;;;8.37;;
20772;SDS011;10546;50.674;4.616;2023-04-06T10:02:41;20.73;;;9.97;;
20772;SDS011;10546;50.674;4.616;2023-04-06T10:05:43;21.27;;;11.20;;
20772;SDS011;10546;50.674;4.616;2023-04-06T10:08:17;19.17;;;9.40;;
20772;SDS011;10546;50.674;4.616;2023-04-06T10:10:44;20.93;;;10.83;;
20772;SDS011;10546;50.674;4.616;2023-04-06T10:13:11;22.20;;;10.73;;
20772;SDS011;10546;50.674;4.616;2023-04-06T10:15:37;25.07;;;10.17;;
20772;SDS011;10546;50.674;4.616;2023-04-06T10:18:05;23.70;;;9.27;;
20772;SDS011;10546;50.674;4.616;2023-04-06T10:20:36;24.63;;;11.80;;
20772;SDS011;10546;50.674;4.616;2023-04-06T10:23:13;23.63;;;11.97;;
20772;SDS011;10546;50.674;4.616;2023-04-06T10:25:54;20.70;;;11.90;;
20772;SDS011;10546;50.674;4.616;2023-04-06T10:28:21;21.20;;;9.10;;
20772;SDS011;10546;50.674;4.616;2023-04-06T10:30:47;17.53;;;9.63;;
20772;SDS011;10546;50.674;4.616;2023-04-06T10:33:17;19.80;;;8.77;;
20772;SDS011;10546;50.674;4.616;2023-04-06T10:35:44;13.60;;;7.23;;
20772;SDS011;10546;50.674;4.616;2023-04-06T10:40:54;17.50;;;9.40;;
20772;SDS011;10546;50.674;4.616;2023-04-06T10:43:32;20.97;;;11.73;;
20772;SDS011;10546;50.674;4.616;2023-04-06T10:46:02;20.83;;;8.20;;
20772;SDS011;10546;50.674;4.616;2023-04-06T10:48:44;17.70;;;9.93;;
20772;SDS011;10546;50.674;4.616;2023-04-06T10:51:15;24.03;;;10.93;;
20772;SDS011;10546;50.674;4.616;2023-04-06T10:53:42;21.17;;;9.77;;
20772;SDS011;10546;50.674;4.616;2023-04-06T10:56:13;22.47;;;10.60;;
20772;SDS011;10546;50.674;4.616;2023-04-06T11:01:31;21.83;;;10.03;;
20772;SDS011;10546;50.674;4.616;2023-04-06T11:03:57;16.60;;;8.97;;
20772;SDS011;10546;50.674;4.616;2023-04-06T11:06:26;19.73;;;10.17;;
20772;SDS011;10546;50.674;4.616;2023-04-06T11:08:54;17.50;;;8.90;;
20772;SDS011;10546;50.674;4.616;2023-04-06T11:11:22;19.33;;;9.63;;
20772;SDS011;10546;50.674;4.616;2023-04-06T11:16:19;16.50;;;8.50;;
20772;SDS011;10546;50.674;4.616;2023-04-06T11:18:55;16.10;;;9.90;;
20772;SDS011;10546;50.674;4.616;2023-04-06T11:21:36;18.67;;;9.90;;
20772;SDS011;10546;50.674;4.616;2023-04-06T11:24:12;16.50;;;7.77;;
20772;SDS011;10546;50.674;4.616;2023-04-06T11:26:42;17.87;;;10.23;;
20772;SDS011;10546;50.674;4.616;2023-04-06T11:29:09;17.27;;;9.13;;
20772;SDS011;10546;50.674;4.616;2023-04-06T11:31:39;16.40;;;8.13;;
20772;SDS011;10546;50.674;4.616;2023-04-06T11:34:15;19.70;;;10.47;;
20772;SDS011;10546;50.674;4.616;2023-04-06T11:36:43;21.13;;;9.80;;
20772;SDS011;10546;50.674;4.616;2023-04-06T11:39:10;21.10;;;10.57;;
20772;SDS011;10546;50.674;4.616;2023-04-06T11:41:37;19.97;;;10.17;;
20772;SDS011;10546;50.674;4.616;2023-04-06T11:44:03;14.00;;;7.70;;
20772;SDS011;10546;50.674;4.616;2023-04-06T11:46:30;16.10;;;8.47;;
20772;SDS011;10546;50.674;4.616;2023-04-06T11:48:59;13.00;;;7.10;;
20772;SDS011;10546;50.674;4.616;2023-04-06T11:51:27;18.03;;;6.13;;
20772;SDS011;10546;50.674;4.616;2023-04-06T11:54:06;21.27;;;10.07;;
20772;SDS011;10546;50.674;4.616;2023-04-06T11:56:32;18.73;;;9.23;;
20772;SDS011;10546;50.674;4.616;2023-04-06T11:59:00;17.87;;;10.83;;
20772;SDS011;10546;50.674;4.616;2023-04-06T12:01:32;18.03;;;9.53;;
20772;SDS011;10546;50.674;4.616;2023-04-06T12:04:09;19.10;;;9.70;;
20772;SDS011;10546;50.674;4.616;2023-04-06T12:06:35;20.40;;;11.73;;
20772;SDS011;10546;50.674;4.616;2023-04-06T12:09:00;21.37;;;11.00;;
20772;SDS011;10546;50.674;4.616;2023-04-06T12:11:26;20.80;;;10.93;;
20772;SDS011;10546;50.674;4.616;2023-04-06T12:13:52;23.77;;;10.93;;
20772;SDS011;10546;50.674;4.616;2023-04-06T12:16:18;13.93;;;8.13;;
20772;SDS011;10546;50.674;4.616;2023-04-06T12:18:47;23.13;;;12.23;;
20772;SDS011;10546;50.674;4.616;2023-04-06T12:21:13;18.33;;;10.07;;
20772;SDS011;10546;50.674;4.616;2023-04-06T12:23:38;20.57;;;10.17;;
20772;SDS011;10546;50.674;4.616;2023-04-06T12:26:04;17.23;;;9.90;;
20772;SDS011;10546;50.674;4.616;2023-04-06T12:28:30;12.93;;;6.00;;
20772;SDS011;10546;50.674;4.616;2023-04-06T12:30:55;16.77;;;9.50;;
20772;SDS011;10546;50.674;4.616;2023-04-06T12:33:21;20.03;;;10.73;;
20772;SDS011;10546;50.674;4.616;2023-04-06T12:35:47;20.50;;;9.10;;
20772;SDS011;10546;50.674;4.616;2023-04-06T12:38:12;21.23;;;12.33;;
20772;SDS011;10546;50.674;4.616;2023-04-06T12:40:38;19.20;;;10.33;;
20772;SDS011;10546;50.674;4.616;2023-04-06T12:43:04;23.27;;;12.23;;
20772;SDS011;10546;50.674;4.616;2023-04-06T12:45:31;20.87;;;8.67;;
20772;SDS011;10546;50.674;4.616;2023-04-06T12:47:57;22.87;;;12.63;;
20772;SDS011;10546;50.674;4.616;2023-04-06T12:50:23;23.10;;;11.97;;
20772;SDS011;10546;50.674;4.616;2023-04-06T12:52:48;24.03;;;12.90;;
20772;SDS011;10546;50.674;4.616;2023-04-06T12:55:14;23.27;;;12.47;;
20772;SDS011;10546;50.674;4.616;2023-04-06T12:57:40;20.53;;;11.00;;
20772;SDS011;10546;50.674;4.616;2023-04-06T13:00:06;24.23;;;12.33;;
20772;SDS011;10546;50.674;4.616;2023-04-06T13:02:33;25.37;;;13.53;;
20772;SDS011;10546;50.674;4.616;2023-04-06T13:04:59;19.70;;;10.83;;
20772;SDS011;10546;50.674;4.616;2023-04-06T13:07:25;26.97;;;13.90;;
20772;SDS011;10546;50.674;4.616;2023-04-06T13:09:51;23.90;;;12.93;;
20772;SDS011;10546;50.674;4.616;2023-04-06T13:12:18;19.37;;;8.47;;
20772;SDS011;10546;50.674;4.616;2023-04-06T13:14:43;24.57;;;12.27;;
20772;SDS011;10546;50.674;4.616;2023-04-06T13:17:09;25.77;;;14.83;;
20772;SDS011;10546;50.674;4.616;2023-04-06T13:19:35;25.90;;;12.23;;
20772;SDS011;10546;50.674;4.616;2023-04-06T13:22:01;32.67;;;15.33;;
20772;SDS011;10546;50.674;4.616;2023-04-06T13:24:27;23.43;;;13.73;;
20772;SDS011;10546;50.674;4.616;2023-04-06T13:26:53;27.20;;;14.20;;
20772;SDS011;10546;50.674;4.616;2023-04-06T13:29:18;21.80;;;10.90;;
20772;SDS011;10546;50.674;4.616;2023-04-06T13:31:44;28.70;;;14.77;;
20772;SDS011;10546;50.674;4.616;2023-04-06T13:34:10;26.80;;;14.20;;
20772;SDS011;10546;50.674;4.616;2023-04-06T13:36:35;25.57;;;13.50;;
20772;SDS011;10546;50.674;4.616;2023-04-06T13:39:01;24.97;;;15.03;;
20772;SDS011;10546;50.674;4.616;2023-04-06T13:41:27;25.60;;;13.33;;
20772;SDS011;10546;50.674;4.616;2023-04-06T13:43:55;29.23;;;14.07;;
20772;SDS011;10546;50.674;4.616;2023-04-06T13:46:23;23.83;;;14.27;;
20772;SDS011;10546;50.674;4.616;2023-04-06T13:48:49;30.20;;;14.93;;
20772;SDS011;10546;50.674;4.616;2023-04-06T13:51:14;25.60;;;13.97;;
20772;SDS011;10546;50.674;4.616;2023-04-06T13:53:40;19.47;;;7.97;;
20772;SDS011;10546;50.674;4.616;2023-04-06T13:56:06;25.83;;;13.33;;
20772;SDS011;10546;50.674;4.616;2023-04-06T13:58:33;25.27;;;14.57;;
20772;SDS011;10546;50.674;4.616;2023-04-06T14:03:31;30.40;;;14.23;;
20772;SDS011;10546;50.674;4.616;2023-04-06T14:05:57;24.20;;;14.30;;
20772;SDS011;10546;50.674;4.616;2023-04-06T14:08:22;23.37;;;13.67;;
20772;SDS011;10546;50.674;4.616;2023-04-06T14:10:48;25.80;;;13.47;;
20772;SDS011;10546;50.674;4.616;2023-04-06T14:13:13;21.03;;;9.53;;
20772;SDS011;10546;50.674;4.616;2023-04-06T14:15:40;24.10;;;12.67;;
20772;SDS011;10546;50.674;4.616;2023-04-06T14:18:06;29.43;;;15.17;;
20772;SDS011;10546;50.674;4.616;2023-04-06T14:20:32;19.57;;;10.80;;
20772;SDS011;10546;50.674;4.616;2023-04-06T14:23:01;28.43;;;13.40;;
20772;SDS011;10546;50.674;4.616;2023-04-06T14:25:31;33.33;;;17.17;;
20772;SDS011;10546;50.674;4.616;2023-04-06T14:27:57;28.83;;;15.37;;
20772;SDS011;10546;50.674;4.616;2023-04-06T14:30:23;30.70;;;15.87;;
20772;SDS011;10546;50.674;4.616;2023-04-06T14:32:48;24.90;;;15.30;;
20772;SDS011;10546;50.674;4.616;2023-04-06T14:35:14;32.43;;;14.83;;
20772;SDS011;10546;50.674;4.616;2023-04-06T14:37:42;27.30;;;15.30;;
20772;SDS011;10546;50.674;4.616;2023-04-06T14:40:08;19.30;;;11.87;;
20772;SDS011;10546;50.674;4.616;2023-04-06T14:42:35;19.17;;;10.40;;
20772;SDS011;10546;50.674;4.616;2023-04-06T14:45:04;30.60;;;16.67;;
20772;SDS011;10546;50.674;4.616;2023-04-06T14:47:31;29.97;;;16.53;;
20772;SDS011;10546;50.674;4.616;2023-04-06T14:49:56;30.40;;;17.87;;
20772;SDS011;10546;50.674;4.616;2023-04-06T14:52:22;27.27;;;14.67;;
20772;SDS011;10546;50.674;4.616;2023-04-06T14:54:51;30.57;;;17.23;;
20772;SDS011;10546;50.674;4.616;2023-04-06T14:57:19;27.93;;;16.07;;
20772;SDS011;10546;50.674;4.616;2023-04-06T14:59:45;28.47;;;16.00;;
20772;SDS011;10546;50.674;4.616;2023-04-06T15:02:11;28.47;;;16.60;;
20772;SDS011;10546;50.674;4.616;2023-04-06T15:04:36;27.87;;;15.97;;
20772;SDS011;10546;50.674;4.616;2023-04-06T15:07:04;29.13;;;17.17;;
20772;SDS011;10546;50.674;4.616;2023-04-06T15:09:29;28.80;;;17.70;;
20772;SDS011;10546;50.674;4.616;2023-04-06T15:11:55;26.33;;;14.27;;
20772;SDS011;10546;50.674;4.616;2023-04-06T15:14:21;28.13;;;13.93;;
20772;SDS011;10546;50.674;4.616;2023-04-06T15:16:46;28.73;;;15.37;;
20772;SDS011;10546;50.674;4.616;2023-04-06T15:19:12;24.13;;;14.20;;
20772;SDS011;10546;50.674;4.616;2023-04-06T15:21:38;28.23;;;15.37;;
20772;SDS011;10546;50.674;4.616;2023-04-06T15:24:03;25.73;;;14.43;;
20772;SDS011;10546;50.674;4.616;2023-04-06T15:26:31;22.20;;;14.23;;
20772;SDS011;10546;50.674;4.616;2023-04-06T15:28:56;23.87;;;14.07;;
20772;SDS011;10546;50.674;4.616;2023-04-06T15:31:22;24.67;;;12.93;;
20772;SDS011;10546;50.674;4.616;2023-04-06T15:33:47;26.00;;;13.27;;
20772;SDS011;10546;50.674;4.616;2023-04-06T15:36:26;25.43;;;13.90;;
20772;SDS011;10546;50.674;4.616;2023-04-06T15:39:10;23.17;;;14.70;;
20772;SDS011;10546;50.674;4.616;2023-04-06T15:41:36;23.80;;;12.90;;
20772;SDS011;10546;50.674;4.616;2023-04-06T15:44:02;24.53;;;13.63;;
20772;SDS011;10546;50.674;4.616;2023-04-06T15:46:28;21.50;;;11.93;;
20772;SDS011;10546;50.674;4.616;2023-04-06T15:48:54;25.43;;;13.37;;
20772;SDS011;10546;50.674;4.616;2023-04-06T15:51:20;27.60;;;14.97;;
20772;SDS011;10546;50.674;4.616;2023-04-06T15:53:46;21.10;;;13.57;;
20772;SDS011;10546;50.674;4.616;2023-04-06T15:56:12;26.13;;;14.10;;
20772;SDS011;10546;50.674;4.616;2023-04-06T15:58:38;19.57;;;10.03;;
20772;SDS011;10546;50.674;4.616;2023-04-06T16:01:14;25.27;;;14.03;;
20772;SDS011;10546;50.674;4.616;2023-04-06T16:03:41;27.83;;;12.93;;
20772;SDS011;10546;50.674;4.616;2023-04-06T16:06:07;22.83;;;11.87;;
20772;SDS011;10546;50.674;4.616;2023-04-06T16:08:33;22.13;;;13.53;;
20772;SDS011;10546;50.674;4.616;2023-04-06T16:10:59;23.33;;;12.53;;
20772;SDS011;10546;50.674;4.616;2023-04-06T16:13:25;21.23;;;12.07;;
20772;SDS011;10546;50.674;4.616;2023-04-06T16:15:51;22.90;;;13.67;;
20772;SDS011;10546;50.674;4.616;2023-04-06T16:18:20;21.60;;;12.27;;
20772;SDS011;10546;50.674;4.616;2023-04-06T16:20:45;22.33;;;12.73;;
20772;SDS011;10546;50.674;4.616;2023-04-06T16:23:11;24.97;;;13.03;;
20772;SDS011;10546;50.674;4.616;2023-04-06T16:25:40;23.63;;;12.57;;
20772;SDS011;10546;50.674;4.616;2023-04-06T16:28:06;24.77;;;13.37;;
20772;SDS011;10546;50.674;4.616;2023-04-06T16:30:35;23.67;;;13.37;;
20772;SDS011;10546;50.674;4.616;2023-04-06T16:33:03;21.17;;;11.93;;
20772;SDS011;10546;50.674;4.616;2023-04-06T16:38:11;20.63;;;11.80;;
20772;SDS011;10546;50.674;4.616;2023-04-06T16:40:37;21.67;;;11.33;;
20772;SDS011;10546;50.674;4.616;2023-04-06T16:43:03;24.53;;;10.60;;
20772;SDS011;10546;50.674;4.616;2023-04-06T16:45:30;19.57;;;10.73;;
20772;SDS011;10546;50.674;4.616;2023-04-06T16:47:56;21.53;;;12.30;;
20772;SDS011;10546;50.674;4.616;2023-04-06T16:50:21;24.87;;;12.63;;
20772;SDS011;10546;50.674;4.616;2023-04-06T16:52:47;21.97;;;11.67;;
20772;SDS011;10546;50.674;4.616;2023-04-06T16:55:12;23.63;;;11.63;;
20772;SDS011;10546;50.674;4.616;2023-04-06T16:57:41;20.93;;;11.10;;
20772;SDS011;10546;50.674;4.616;2023-04-06T17:00:07;23.47;;;10.87;;
20772;SDS011;10546;50.674;4.616;2023-04-06T17:02:33;20.93;;;11.60;;
20772;SDS011;10546;50.674;4.616;2023-04-06T17:05:01;19.90;;;10.50;;
20772;SDS011;10546;50.674;4.616;2023-04-06T17:07:27;24.37;;;11.60;;
20772;SDS011;10546;50.674;4.616;2023-04-06T17:10:00;19.80;;;10.93;;
20772;SDS011;10546;50.674;4.616;2023-04-06T17:12:29;23.37;;;10.93;;
20772;SDS011;10546;50.674;4.616;2023-04-06T17:14:55;21.80;;;12.20;;
20772;SDS011;10546;50.674;4.616;2023-04-06T17:17:20;22.60;;;12.10;;
20772;SDS011;10546;50.674;4.616;2023-04-06T17:19:46;22.70;;;12.20;;
20772;SDS011;10546;50.674;4.616;2023-04-06T17:22:11;25.20;;;12.70;;
20772;SDS011;10546;50.674;4.616;2023-04-06T17:24:37;23.37;;;11.77;;
20772;SDS011;10546;50.674;4.616;2023-04-06T17:27:03;23.90;;;12.53;;
20772;SDS011;10546;50.674;4.616;2023-04-06T17:29:28;27.20;;;12.90;;
20772;SDS011;10546;50.674;4.616;2023-04-06T17:32:00;20.73;;;12.10;;
20772;SDS011;10546;50.674;4.616;2023-04-06T17:34:27;23.00;;;11.30;;
20772;SDS011;10546;50.674;4.616;2023-04-06T17:36:53;26.13;;;12.03;;